Saint Marys, Indiana
Current Conditions -  °F | °C
As of 6:54 AM on Thursday 23 Oct 2014 (Local Time) from KSBN Reporting Station
Haze Haze  
Wind Chill: 34°   Ceiling: Unl
Heat Index: 34°   Visibility: 2mi
Dew Point: 31°   Wind: 3mph
Humidity: 89%   Direction: 120°ESE
Pressure: 30.26"   Gusts: NA
Location:  41.7197°N, 86.2504°W
Report Text: KSBN 231054Z 12003KT 2SM R27L/4500VP6000FT BR CLR 01/M01 A3026 RMK AO2 SLP253 T00111006
Loading
Personal Weather Stations






























Interactive Weather Map New forecast layout! Learn more

10-Day Weather Forecast

Advertisements
Track Severe Weather on mobile